createdAt,value
2019-02-23T00:01:09.907Z,51.10
2019-02-23T00:03:43.277Z,51.20
2019-02-23T00:06:13.987Z,52.00
2019-02-23T00:08:45.581Z,52.90
2019-02-23T00:11:16.054Z,53.50
2019-02-23T00:13:45.363Z,53.40
2019-02-23T00:16:16.065Z,54.20
2019-02-23T00:18:45.742Z,54.80
2019-02-23T00:21:15.793Z,54.60
2019-02-23T00:23:45.312Z,54.40
2019-02-23T00:26:14.132Z,54.70
2019-02-23T00:28:45.548Z,54.80
2019-02-23T00:31:14.733Z,54.70
2019-02-23T00:33:44.738Z,54.10
2019-02-23T00:36:14.911Z,54.00
2019-02-23T00:38:44.837Z,54.30
2019-02-23T00:41:14.097Z,53.40
2019-02-23T00:43:43.509Z,53.10
2019-02-23T00:46:12.926Z,52.90
2019-02-23T00:48:43.467Z,53.80
2019-02-23T00:51:13.642Z,54.80
2019-02-23T00:53:43.446Z,55.80
2019-02-23T00:56:13.155Z,56.10
2019-02-23T00:58:42.982Z,56.60
2019-02-23T01:01:13.747Z,58.40
2019-02-23T01:03:42.981Z,58.10
2019-02-23T01:06:11.843Z,57.90
2019-02-23T01:08:41.249Z,57.90
2019-02-23T01:11:11.287Z,57.80
2019-02-23T01:13:41.632Z,59.30
2019-02-23T01:16:11.449Z,58.20
2019-02-23T01:18:41.239Z,57.70
2019-02-23T01:21:12.993Z,57.70
2019-02-23T01:23:42.661Z,54.30
2019-02-23T01:26:13.731Z,52.20
2019-02-23T01:28:44.447Z,51.50
2019-02-23T01:31:13.850Z,51.30
2019-02-23T01:33:43.906Z,51.40
2019-02-23T01:36:14.564Z,51.30
2019-02-23T01:38:45.546Z,51.50
2019-02-23T01:41:14.975Z,51.60
2019-02-23T01:43:45.506Z,50.80
2019-02-23T01:46:14.033Z,51.30
2019-02-23T01:48:43.843Z,52.10
2019-02-23T01:51:16.200Z,52.10
2019-02-23T01:53:46.769Z,53.10
2019-02-23T01:56:17.289Z,52.80
2019-02-23T01:58:48.495Z,51.60
2019-02-23T02:01:19.080Z,49.10
2019-02-23T02:03:48.526Z,49.20
2019-02-23T02:06:19.181Z,48.60
2019-02-23T02:08:48.816Z,47.60
2019-02-23T02:11:19.302Z,47.80
2019-02-23T02:13:49.246Z,46.60
2019-02-23T02:16:19.610Z,45.70
2019-02-23T02:18:50.827Z,44.90
2019-02-23T02:21:21.663Z,44.70
2019-02-23T02:23:51.291Z,42.60
2019-02-23T02:26:21.964Z,41.50
2019-02-23T02:28:51.812Z,40.80
2019-02-23T02:31:23.434Z,39.60
2019-02-23T02:34:16.733Z,39.50
2019-02-23T02:36:46.792Z,39.50
2019-02-23T02:39:18.943Z,38.90
2019-02-23T02:41:49.159Z,37.80
2019-02-23T02:44:19.201Z,37.30
2019-02-23T02:46:48.114Z,35.30
2019-02-23T02:49:17.319Z,34.80
2019-02-23T02:51:47.759Z,32.80
2019-02-23T02:54:18.195Z,32.10
2019-02-23T02:56:48.411Z,32.50
2019-02-23T02:59:19.218Z,32.50
2019-02-23T03:01:50.333Z,32.00
2019-02-23T03:04:21.228Z,31.70
2019-02-23T03:06:50.999Z,32.30
2019-02-23T03:09:21.083Z,32.00
2019-02-23T03:11:50.513Z,32.60
2019-02-23T03:14:21.117Z,30.70
2019-02-23T03:16:50.772Z,29.90
2019-02-23T03:19:21.440Z,30.80
2019-02-23T03:21:52.523Z,30.00
2019-02-23T03:24:22.753Z,29.80
2019-02-23T03:26:51.911Z,29.60
2019-02-23T03:29:22.513Z,28.50
2019-02-23T03:31:53.744Z,28.60
2019-02-23T03:34:23.103Z,28.70
2019-02-23T03:36:54.157Z,28.80
2019-02-23T03:39:23.152Z,28.60
2019-02-23T03:41:54.443Z,28.60
2019-02-23T03:44:24.215Z,29.00
2019-02-23T03:46:54.631Z,29.30
2019-02-23T03:49:28.645Z,29.30
2019-02-23T03:51:57.896Z,30.00
2019-02-23T03:54:28.416Z,29.70
2019-02-23T03:56:59.347Z,29.10
2019-02-23T03:59:29.213Z,29.30
2019-02-23T04:02:00.295Z,29.40
2019-02-23T04:04:30.067Z,29.90
2019-02-23T04:06:59.997Z,28.60
2019-02-23T04:09:29.922Z,29.00
2019-02-23T04:11:58.760Z,29.10
2019-02-23T04:14:28.450Z,29.10
2019-02-23T04:16:58.306Z,28.90
2019-02-23T04:19:29.835Z,29.00
2019-02-23T04:21:59.734Z,29.10
2019-02-23T04:24:29.129Z,28.20
2019-02-23T04:26:58.905Z,28.30
2019-02-23T04:29:29.920Z,27.90
2019-02-23T04:32:02.499Z,28.70
2019-02-23T04:34:33.673Z,28.80
2019-02-23T04:37:02.729Z,27.90
2019-02-23T04:39:33.527Z,26.20
2019-02-23T04:42:03.825Z,25.40
2019-02-23T04:44:36.950Z,25.70
2019-02-23T04:47:06.692Z,25.20
2019-02-23T04:49:39.027Z,24.50
2019-02-23T04:52:12.573Z,23.80
2019-02-23T04:54:43.421Z,23.10
2019-02-23T04:57:13.691Z,23.60
2019-02-23T04:59:44.085Z,23.20
2019-02-23T05:02:13.672Z,22.40
2019-02-23T05:04:44.320Z,22.10
2019-02-23T05:07:13.249Z,21.80
2019-02-23T05:09:42.590Z,21.50
2019-02-23T05:12:12.161Z,21.70
2019-02-23T05:14:41.894Z,21.00
2019-02-23T05:17:11.421Z,20.70
2019-02-23T05:19:41.856Z,20.20
2019-02-23T05:22:12.435Z,20.70
2019-02-23T05:24:43.939Z,20.80
2019-02-23T05:27:13.152Z,20.90
2019-02-23T05:29:43.231Z,21.40
2019-02-23T05:32:12.924Z,21.90
2019-02-23T05:34:44.029Z,22.10
2019-02-23T05:37:14.093Z,21.90
2019-02-23T05:39:44.248Z,21.40
2019-02-23T05:42:13.874Z,20.30
2019-02-23T05:44:43.512Z,20.60
2019-02-23T05:47:14.901Z,20.10
2019-02-23T05:49:43.533Z,19.70
2019-02-23T05:52:12.636Z,19.30
2019-02-23T05:54:42.306Z,19.20
2019-02-23T05:57:12.681Z,18.90
2019-02-23T05:59:45.204Z,19.40
2019-02-23T06:02:15.111Z,19.20
2019-02-23T06:04:46.567Z,19.40
2019-02-23T06:07:16.847Z,20.00
2019-02-23T06:09:46.273Z,20.00
2019-02-23T06:12:17.230Z,19.60
2019-02-23T06:14:47.878Z,18.80
2019-02-23T06:17:19.169Z,19.00
2019-02-23T06:19:49.560Z,19.30
2019-02-23T06:22:19.389Z,19.40
2019-02-23T06:24:50.036Z,18.90
2019-02-23T06:27:20.328Z,18.50
2019-02-23T06:29:49.198Z,19.30
2019-02-23T06:32:19.131Z,18.70
2019-02-23T06:34:49.303Z,19.00
2019-02-23T06:37:19.093Z,19.40
2019-02-23T06:39:48.469Z,19.10
2019-02-23T06:42:18.882Z,18.80
2019-02-23T06:44:49.081Z,18.30
2019-02-23T06:47:19.333Z,18.70
2019-02-23T06:49:48.898Z,19.20
2019-02-23T06:52:19.169Z,19.60
2019-02-23T06:54:48.510Z,18.60
2019-02-23T06:57:18.699Z,18.40
2019-02-23T06:59:47.985Z,17.90
2019-02-23T07:02:17.231Z,16.90
2019-02-23T07:04:47.504Z,17.10
2019-02-23T07:07:17.854Z,17.30
2019-02-23T07:09:46.841Z,16.90
2019-02-23T07:12:15.653Z,16.70
2019-02-23T07:14:44.512Z,15.40
2019-02-23T07:17:15.141Z,15.60
2019-02-23T07:19:48.038Z,16.40
2019-02-23T07:22:19.273Z,16.00
2019-02-23T07:24:48.738Z,15.70
2019-02-23T07:27:18.211Z,16.40
2019-02-23T07:29:47.118Z,17.50
2019-02-23T07:32:17.034Z,17.80
2019-02-23T07:34:47.621Z,19.30
2019-02-23T07:37:17.185Z,20.20
2019-02-23T07:39:46.793Z,21.50
2019-02-23T07:42:16.880Z,22.30
2019-02-23T07:44:52.786Z,22.90
2019-02-23T07:47:23.027Z,23.30
2019-02-23T07:49:53.228Z,23.90
2019-02-23T07:52:26.282Z,24.20
2019-02-23T07:54:58.492Z,23.60
2019-02-23T07:57:29.091Z,23.40
2019-02-23T07:59:58.749Z,23.90
2019-02-23T08:02:28.170Z,24.00
2019-02-23T08:04:58.263Z,24.40
2019-02-23T08:07:28.905Z,23.60
2019-02-23T08:09:59.375Z,23.80
2019-02-23T08:12:28.431Z,23.10
2019-02-23T08:14:59.129Z,22.70
2019-02-23T08:17:29.266Z,23.20
2019-02-23T08:19:59.179Z,23.30
2019-02-23T08:22:37.018Z,22.10
2019-02-23T08:25:01.827Z,22.00
2019-02-23T08:27:31.104Z,20.30
2019-02-23T08:30:01.321Z,20.70
2019-02-23T08:32:30.184Z,20.00
2019-02-23T08:34:59.124Z,19.90
2019-02-23T08:37:32.283Z,20.10
2019-02-23T08:40:00.903Z,20.00
2019-02-23T08:42:30.776Z,20.30
2019-02-23T08:45:00.766Z,20.20
2019-02-23T08:47:31.266Z,19.50
2019-02-23T08:50:01.526Z,20.00
2019-02-23T08:52:32.193Z,19.90
2019-02-23T08:55:03.362Z,20.20
2019-02-23T08:57:32.606Z,20.10
2019-02-23T09:00:03.389Z,19.10
2019-02-23T09:02:33.163Z,19.10
2019-02-23T09:05:02.474Z,19.20
2019-02-23T09:07:31.444Z,18.90
2019-02-23T09:10:01.264Z,18.50
2019-02-23T09:12:32.158Z,18.10
2019-02-23T09:15:02.566Z,17.50
2019-02-23T09:17:33.332Z,16.70
2019-02-23T09:20:02.765Z,17.40
2019-02-23T09:22:32.925Z,17.90
2019-02-23T09:25:02.677Z,19.20
2019-02-23T09:27:33.221Z,19.80
2019-02-23T09:30:02.856Z,19.80
2019-02-23T09:32:32.447Z,19.90
2019-02-23T09:35:01.846Z,20.70
2019-02-23T09:37:33.411Z,20.30
2019-02-23T09:40:02.394Z,20.10
2019-02-23T09:42:32.929Z,20.80
2019-02-23T09:45:02.323Z,20.60
2019-02-23T09:47:31.974Z,21.10
2019-02-23T09:50:03.093Z,21.10
2019-02-23T09:52:31.779Z,21.00
2019-02-23T09:55:01.362Z,20.80
2019-02-23T09:57:31.552Z,20.70
2019-02-23T10:00:03.293Z,20.40
2019-02-23T10:02:34.467Z,20.80
2019-02-23T10:05:06.413Z,20.50
2019-02-23T10:07:36.488Z,20.50
2019-02-23T10:10:06.184Z,20.50
2019-02-23T10:12:36.087Z,19.00
2019-02-23T10:15:07.050Z,18.70
2019-02-23T10:17:37.550Z,19.20
2019-02-23T10:20:09.521Z,19.60
2019-02-23T10:22:40.252Z,20.40
2019-02-23T10:25:11.174Z,19.80
2019-02-23T10:27:40.479Z,19.90
2019-02-23T10:30:13.090Z,19.80
2019-02-23T10:32:42.758Z,19.80
2019-02-23T10:35:11.337Z,19.50
2019-02-23T10:37:41.285Z,19.60
2019-02-23T10:40:11.127Z,19.60
2019-02-23T10:42:41.385Z,19.50
2019-02-23T10:45:12.836Z,19.50
2019-02-23T10:47:43.124Z,18.30
2019-02-23T10:50:13.134Z,18.40
2019-02-23T10:52:43.388Z,18.90
2019-02-23T10:55:13.511Z,17.20
2019-02-23T10:57:44.192Z,17.20
2019-02-23T11:15:08.576Z,16.90
2019-02-23T11:31:10.837Z,16.40
2019-02-23T11:33:39.734Z,16.10
2019-02-23T11:36:11.219Z,14.60
2019-02-23T11:38:41.934Z,14.40
2019-02-23T11:41:12.117Z,14.90
2019-02-23T11:43:42.514Z,15.60
2019-02-23T11:46:13.389Z,15.80
2019-02-23T11:48:42.517Z,15.00
2019-02-23T11:51:14.119Z,15.00
2019-02-23T11:53:43.410Z,14.40
2019-02-23T11:56:12.980Z,13.80
2019-02-23T11:58:42.346Z,12.90
2019-02-23T12:01:11.740Z,13.50
2019-02-23T12:03:43.064Z,13.60
2019-02-23T12:06:12.485Z,13.50
2019-02-23T12:08:43.306Z,12.80
2019-02-23T12:11:13.247Z,12.90
2019-02-23T12:13:43.940Z,14.00
2019-02-23T12:16:14.211Z,12.70
2019-02-23T12:18:44.860Z,12.10
2019-02-23T12:21:15.807Z,13.70
2019-02-23T12:23:46.191Z,13.70
2019-02-23T12:26:15.412Z,12.30
2019-02-23T12:28:45.346Z,12.10
2019-02-23T12:31:16.082Z,12.30
2019-02-23T12:33:45.605Z,12.60
2019-02-23T12:36:16.280Z,14.10
2019-02-23T12:38:47.273Z,12.70
2019-02-23T12:41:16.824Z,13.30
2019-02-23T12:43:46.011Z,13.50
2019-02-23T12:46:16.450Z,13.90
2019-02-23T12:48:47.234Z,14.20
2019-02-23T12:51:18.426Z,14.30
2019-02-23T12:53:47.874Z,13.60
2019-02-23T12:56:18.579Z,14.00
2019-02-23T12:58:48.744Z,14.30
2019-02-23T13:01:18.767Z,14.10
2019-02-23T13:03:48.793Z,14.70
2019-02-23T13:06:19.108Z,14.60
2019-02-23T13:09:27.287Z,13.70
2019-02-23T13:12:19.982Z,14.10
2019-02-23T13:15:23.393Z,14.40
2019-02-23T13:18:36.035Z,15.30
2019-02-23T13:21:53.607Z,14.50
2019-02-23T13:24:56.103Z,14.50
2019-02-23T13:28:18.149Z,14.50
2019-02-23T13:31:38.945Z,15.30
2019-02-23T13:34:59.442Z,13.80
2019-02-23T13:38:48.018Z,13.70
2019-02-23T13:42:05.750Z,14.40
2019-02-23T13:45:27.709Z,14.00
2019-02-23T13:49:25.642Z,14.20
2019-02-23T13:52:43.298Z,13.90
2019-02-23T13:56:24.718Z,14.40
2019-02-23T13:59:32.137Z,15.10
2019-02-23T14:02:57.293Z,14.00
2019-02-23T14:06:22.644Z,14.60
2019-02-23T14:09:47.460Z,14.80
2019-02-23T14:13:00.819Z,15.20
2019-02-23T14:16:13.896Z,15.00
2019-02-23T14:19:00.031Z,15.40
2019-02-23T14:22:41.809Z,14.90
2019-02-23T14:26:14.564Z,15.00
2019-02-23T14:29:43.660Z,14.50
2019-02-23T14:33:22.861Z,14.50
2019-02-23T14:36:50.680Z,14.60
2019-02-23T14:40:28.041Z,13.80
2019-02-23T14:43:20.844Z,14.50
2019-02-23T14:46:20.807Z,14.10
2019-02-23T14:49:50.042Z,14.10
2019-02-23T14:53:32.670Z,13.90
2019-02-23T14:57:00.766Z,13.60
2019-02-23T15:00:52.946Z,13.60
2019-02-23T15:04:35.605Z,13.30
2019-02-23T15:08:15.991Z,12.90
2019-02-23T15:11:42.002Z,13.20
2019-02-23T15:15:24.370Z,12.70
2019-02-23T15:18:37.701Z,13.60
2019-02-23T15:21:45.603Z,12.30
2019-02-23T15:25:12.893Z,13.00
2019-02-23T15:28:37.467Z,13.10
2019-02-23T15:31:54.511Z,12.80
2019-02-23T15:35:09.281Z,14.30
2019-02-23T15:38:17.210Z,14.00
2019-02-23T15:42:02.584Z,15.10
2019-02-23T15:45:29.846Z,15.40
2019-02-23T15:49:04.913Z,14.90
2019-02-23T15:51:35.233Z,14.30
2019-02-23T15:54:05.324Z,14.70
2019-02-23T15:56:36.595Z,14.80
2019-02-23T15:59:09.124Z,14.70
2019-02-23T16:01:42.946Z,15.10
2019-02-23T16:04:14.056Z,15.30
2019-02-23T16:06:45.697Z,15.80
2019-02-23T16:09:21.774Z,15.80
2019-02-23T16:11:52.236Z,15.90
2019-02-23T16:14:23.957Z,16.10
2019-02-23T16:16:55.300Z,16.50
2019-02-23T16:19:25.697Z,16.40
2019-02-23T16:22:08.307Z,16.20
2019-02-23T16:24:53.046Z,16.30
2019-02-23T16:27:27.008Z,16.40
2019-02-23T16:29:57.309Z,17.00
2019-02-23T16:32:28.896Z,17.20
2019-02-23T16:35:00.053Z,17.20
2019-02-23T16:37:36.132Z,17.50
2019-02-23T16:40:07.875Z,18.10
2019-02-23T16:42:41.074Z,18.50
2019-02-23T16:45:11.790Z,19.40
2019-02-23T16:47:43.520Z,19.30
2019-02-23T16:50:15.599Z,19.40
2019-02-23T16:52:44.915Z,19.50
2019-02-23T16:55:15.218Z,19.70
2019-02-23T16:57:46.112Z,19.80
2019-02-23T17:00:16.859Z,19.90
2019-02-23T17:02:45.886Z,20.00
2019-02-23T17:05:17.655Z,20.10
2019-02-23T17:07:53.445Z,20.30
2019-02-23T17:10:26.930Z,20.80
2019-02-23T17:12:57.948Z,21.00
2019-02-23T17:15:40.976Z,21.30
2019-02-23T17:18:15.789Z,21.60
2019-02-23T17:20:51.397Z,21.60
2019-02-23T17:23:21.612Z,21.90
2019-02-23T17:26:03.378Z,22.10
2019-02-23T17:28:23.708Z,22.20
2019-02-23T17:30:53.948Z,22.50
2019-02-23T17:33:29.484Z,22.80
2019-02-23T17:36:00.951Z,22.80
2019-02-23T17:38:31.502Z,23.00
2019-02-23T17:41:04.166Z,23.40
2019-02-23T17:43:36.095Z,23.40
2019-02-23T17:46:05.412Z,23.80
2019-02-23T17:48:38.190Z,24.00
2019-02-23T17:51:08.279Z,24.30
2019-02-23T17:53:38.993Z,24.40
2019-02-23T17:56:12.619Z,24.50
2019-02-23T17:58:45.432Z,24.70
2019-02-23T18:01:19.846Z,25.00
2019-02-23T18:03:52.345Z,25.10
2019-02-23T18:06:27.673Z,25.40
2019-02-23T18:09:11.356Z,25.60
2019-02-23T18:11:41.676Z,25.80
2019-02-23T18:14:12.356Z,25.90
2019-02-23T18:16:43.726Z,25.50
2019-02-23T18:19:14.153Z,25.70
2019-02-23T18:21:44.613Z,25.90
2019-02-23T18:24:14.868Z,26.10
2019-02-23T18:26:44.513Z,26.10
2019-02-23T18:29:14.329Z,26.20
2019-02-23T18:31:44.363Z,26.40
2019-02-23T18:34:15.043Z,26.70
2019-02-23T18:36:44.826Z,26.60
2019-02-23T18:39:15.878Z,26.70
2019-02-23T18:41:45.390Z,26.70
2019-02-23T18:44:15.794Z,27.00
2019-02-23T18:46:46.304Z,27.00
2019-02-23T18:49:16.971Z,26.90
2019-02-23T18:51:48.932Z,27.10
2019-02-23T18:54:20.118Z,27.10
2019-02-23T18:56:51.148Z,27.20
2019-02-23T18:59:21.467Z,27.20
2019-02-23T19:01:51.054Z,27.20
2019-02-23T19:04:21.016Z,27.60
2019-02-23T19:06:51.023Z,27.30
2019-02-23T19:09:20.373Z,27.60
2019-02-23T19:11:50.526Z,27.80
2019-02-23T19:14:20.901Z,28.00
2019-02-23T19:16:50.739Z,28.10
2019-02-23T19:19:21.034Z,27.70
2019-02-23T19:21:52.061Z,27.80
2019-02-23T19:24:23.780Z,27.10
2019-02-23T19:26:54.043Z,26.90
2019-02-23T19:29:23.583Z,27.10
2019-02-23T19:31:57.806Z,27.50
2019-02-23T19:34:31.492Z,27.30
2019-02-23T19:37:03.417Z,27.30
2019-02-23T19:39:33.678Z,27.30
2019-02-23T19:42:05.273Z,27.50
2019-02-23T19:44:36.679Z,27.80
2019-02-23T19:47:14.403Z,28.60
2019-02-23T19:49:47.676Z,28.60
2019-02-23T19:52:19.959Z,28.40
2019-02-23T19:54:51.371Z,27.90
2019-02-23T19:57:25.627Z,27.50
2019-02-23T19:59:55.171Z,28.00
2019-02-23T20:02:27.542Z,27.90
2019-02-23T20:04:56.445Z,27.90
2019-02-23T20:07:28.568Z,27.80
2019-02-23T20:09:59.553Z,28.00
2019-02-23T20:12:29.039Z,28.00
2019-02-23T20:14:59.439Z,27.90
2019-02-23T20:17:29.798Z,28.20
2019-02-23T20:20:02.091Z,28.20
2019-02-23T20:22:33.408Z,27.80
2019-02-23T20:25:05.671Z,27.90
2019-02-23T20:27:34.710Z,27.80
2019-02-23T20:30:06.472Z,27.60
2019-02-23T20:32:38.608Z,27.70
2019-02-23T20:35:11.076Z,28.10
2019-02-23T20:37:41.772Z,28.00
2019-02-23T20:40:12.896Z,28.00
2019-02-23T20:42:43.141Z,28.20
2019-02-23T20:45:14.532Z,28.10
2019-02-23T20:47:44.463Z,28.10
2019-02-23T20:50:22.073Z,28.10
2019-02-23T20:52:53.605Z,28.70
2019-02-23T20:55:26.134Z,28.30
2019-02-23T20:57:56.671Z,27.90
2019-02-23T21:00:27.849Z,28.10
2019-02-23T21:02:59.521Z,28.50
2019-02-23T21:05:29.259Z,28.50
2019-02-23T21:07:59.891Z,28.60
2019-02-23T21:10:30.118Z,28.80
2019-02-23T21:13:00.917Z,29.00
2019-02-23T21:15:34.666Z,28.90
2019-02-23T21:18:04.617Z,29.10
2019-02-23T21:20:34.873Z,29.40
2019-02-23T21:23:05.920Z,29.60
2019-02-23T21:25:39.405Z,29.80
2019-02-23T21:28:13.311Z,29.90
2019-02-23T21:30:44.287Z,30.50
2019-02-23T21:33:14.700Z,30.90
2019-02-23T21:36:04.157Z,31.00
2019-02-23T21:38:34.261Z,31.20
2019-02-23T21:41:04.607Z,31.80
2019-02-23T21:43:36.639Z,32.80
2019-02-23T21:46:08.846Z,32.30
2019-02-23T21:48:42.466Z,32.40
2019-02-23T21:51:14.801Z,33.20
2019-02-23T21:53:44.594Z,32.20
2019-02-23T21:56:14.913Z,32.80
2019-02-23T21:58:44.105Z,32.70
2019-02-23T22:01:16.272Z,32.70
2019-02-23T22:03:47.650Z,33.20
2019-02-23T22:06:18.030Z,33.40
2019-02-23T22:08:49.601Z,33.60
2019-02-23T22:11:21.168Z,34.10
2019-02-23T22:13:50.156Z,34.70
2019-02-23T22:16:20.066Z,34.80
2019-02-23T22:18:52.740Z,35.40
2019-02-23T22:21:24.744Z,36.10
2019-02-23T22:23:56.150Z,36.60
2019-02-23T22:26:26.609Z,36.60
2019-02-23T22:28:55.955Z,36.60
2019-02-23T22:31:28.229Z,36.60
2019-02-23T22:33:59.136Z,36.40
2019-02-23T22:36:29.234Z,36.40
2019-02-23T22:38:58.891Z,36.60
2019-02-23T22:41:29.676Z,36.80
2019-02-23T22:44:00.504Z,36.90
2019-02-23T22:46:31.113Z,37.10
2019-02-23T22:49:01.294Z,37.40
2019-02-23T22:51:31.795Z,38.00
2019-02-23T22:54:02.890Z,38.00
2019-02-23T22:56:33.018Z,38.30
2019-02-23T22:59:04.208Z,38.40
2019-02-23T23:01:36.116Z,38.60
2019-02-23T23:04:07.328Z,38.80
2019-02-23T23:06:55.959Z,38.40
2019-02-23T23:09:25.615Z,38.40
2019-02-23T23:11:56.124Z,38.80
2019-02-23T23:14:27.676Z,38.70
2019-02-23T23:16:56.693Z,38.50
2019-02-23T23:19:27.760Z,37.90
2019-02-23T23:21:57.934Z,38.00
2019-02-23T23:24:27.804Z,37.90
2019-02-23T23:26:58.068Z,37.50
2019-02-23T23:29:27.489Z,37.40
2019-02-23T23:31:56.861Z,37.60
2019-02-23T23:34:29.070Z,38.10
2019-02-23T23:37:00.768Z,37.50
2019-02-23T23:39:30.486Z,37.60
2019-02-23T23:42:00.414Z,37.80
2019-02-23T23:44:29.411Z,37.70
2019-02-23T23:46:59.302Z,38.00
2019-02-23T23:49:29.398Z,38.10
2019-02-23T23:52:00.024Z,38.30
2019-02-23T23:54:30.830Z,38.80
2019-02-23T23:57:01.441Z,39.00
2019-02-23T23:59:30.839Z,39.30
